createdAt,value
2022-08-11T00:00:09.145Z,61.01
2022-08-11T00:02:46.616Z,61.41
2022-08-11T00:05:17.218Z,61.45
2022-08-11T00:07:48.150Z,60.89
2022-08-11T00:10:18.679Z,61.37
2022-08-11T00:13:02.579Z,61.33
2022-08-11T00:15:44.251Z,61.09
2022-08-11T00:18:13.197Z,61.12
2022-08-11T00:20:45.701Z,60.29
2022-08-11T00:23:18.476Z,60.46
2022-08-11T00:25:50.941Z,59.74
2022-08-11T00:28:28.970Z,59.54
2022-08-11T00:30:59.612Z,59.39
2022-08-11T00:33:41.346Z,59.08
2022-08-11T00:36:16.235Z,59.09
2022-08-11T00:38:46.153Z,58.70
2022-08-11T00:41:34.778Z,58.52
2022-08-11T00:44:28.929Z,57.93
2022-08-11T00:47:04.970Z,57.96
2022-08-11T00:49:50.773Z,57.87
2022-08-11T00:52:44.921Z,58.01
2022-08-11T00:55:20.950Z,58.35
2022-08-11T00:58:21.846Z,58.14
2022-08-11T01:01:14.249Z,58.02
2022-08-11T01:04:17.616Z,58.54
2022-08-11T01:06:50.672Z,58.57
2022-08-11T01:09:35.787Z,58.91
2022-08-11T01:12:29.382Z,58.94
2022-08-11T01:15:24.424Z,59.41
2022-08-11T01:18:10.232Z,59.67
2022-08-11T01:20:59.122Z,59.85
2022-08-11T01:24:00.099Z,59.58
2022-08-11T01:27:04.617Z,59.99
2022-08-11T01:30:20.979Z,59.57
2022-08-11T01:33:05.224Z,59.70
2022-08-11T01:35:41.852Z,60.03
2022-08-11T01:38:46.444Z,60.30
2022-08-11T01:41:53.130Z,60.29
2022-08-11T01:44:48.106Z,60.33
2022-08-11T01:47:52.619Z,59.90
2022-08-11T01:50:39.295Z,59.88
2022-08-11T01:53:47.198Z,59.74
2022-08-11T01:56:36.051Z,59.81
2022-08-11T01:59:29.006Z,59.95
2022-08-11T02:02:48.263Z,59.59
2022-08-11T02:05:46.196Z,59.60
2022-08-11T02:08:34.948Z,59.73
2022-08-11T02:11:21.102Z,59.64
2022-08-11T02:14:01.072Z,58.99
2022-08-11T02:16:55.642Z,58.52
2022-08-11T02:19:55.444Z,58.29
2022-08-11T02:22:50.187Z,58.20
2022-08-11T02:25:29.274Z,58.51
2022-08-11T02:28:19.351Z,58.17
2022-08-11T02:32:15.897Z,58.21
2022-08-11T02:34:19.600Z,57.96
2022-08-11T02:36:59.514Z,58.04
2022-08-11T02:39:39.690Z,57.73
2022-08-11T02:42:33.423Z,57.63
2022-08-11T02:45:06.231Z,58.02
2022-08-11T02:48:21.173Z,57.84
2022-08-11T02:50:49.579Z,57.92
2022-08-11T02:53:44.182Z,57.25
2022-08-11T02:56:32.099Z,57.04
2022-08-11T02:59:30.135Z,57.40
2022-08-11T03:02:17.324Z,57.38
2022-08-11T03:04:59.231Z,57.01
2022-08-11T03:07:28.609Z,56.90
2022-08-11T03:10:06.191Z,57.70
2022-08-11T03:13:21.024Z,57.43
2022-08-11T03:16:45.933Z,57.73
2022-08-11T03:19:19.059Z,57.61
2022-08-11T03:22:17.228Z,57.28
2022-08-11T03:24:51.870Z,57.08
2022-08-11T03:27:39.692Z,56.54
2022-08-11T03:30:16.381Z,56.44
2022-08-11T03:33:49.408Z,56.67
2022-08-11T03:37:15.432Z,56.03
2022-08-11T03:39:57.022Z,55.78
2022-08-11T03:42:27.454Z,55.68
2022-08-11T03:45:15.722Z,55.24
2022-08-11T03:47:52.611Z,55.79
2022-08-11T03:51:03.166Z,55.51
2022-08-11T03:53:58.234Z,55.85
2022-08-11T03:57:03.572Z,55.39
2022-08-11T04:00:12.844Z,55.59
2022-08-11T04:03:10.553Z,55.70
2022-08-11T04:05:40.760Z,55.77
2022-08-11T04:08:34.132Z,56.03
2022-08-11T04:11:22.920Z,56.39
2022-08-11T04:14:30.791Z,56.48
2022-08-11T04:17:07.306Z,56.15
2022-08-11T04:19:53.381Z,56.13
2022-08-11T04:22:35.331Z,56.76
2022-08-11T04:25:22.792Z,56.29
2022-08-11T04:28:29.038Z,56.38
2022-08-11T04:31:48.857Z,56.76
2022-08-11T04:34:18.053Z,56.86
2022-08-11T04:37:22.449Z,56.76
2022-08-11T04:40:19.736Z,56.53
2022-08-11T04:43:14.498Z,58.08
2022-08-11T04:46:19.364Z,58.60
2022-08-11T04:49:35.969Z,58.26
2022-08-11T04:52:35.997Z,57.34
2022-08-11T04:56:03.202Z,57.29
2022-08-11T04:58:58.167Z,56.88
2022-08-11T05:01:55.781Z,56.14
2022-08-11T05:04:47.448Z,56.15
2022-08-11T05:07:53.809Z,55.89
2022-08-11T05:10:45.892Z,55.69
2022-08-11T05:13:45.850Z,55.27
2022-08-11T05:16:34.939Z,55.15
2022-08-11T05:19:22.511Z,55.38
2022-08-11T05:22:17.291Z,55.16
2022-08-11T05:25:11.046Z,54.91
2022-08-11T05:28:12.362Z,53.96
2022-08-11T05:31:02.024Z,55.12
2022-08-11T05:34:05.985Z,56.09
2022-08-11T05:36:51.028Z,55.25
2022-08-11T05:39:41.582Z,54.62
2022-08-11T05:42:30.165Z,53.71
2022-08-11T05:46:04.054Z,51.68
2022-08-11T05:48:55.461Z,48.55
2022-08-11T05:51:55.473Z,47.78
2022-08-11T05:54:46.925Z,45.04
2022-08-11T05:57:48.687Z,46.35
2022-08-11T06:00:16.096Z,44.83
2022-08-11T06:02:49.557Z,44.23
2022-08-11T06:05:19.654Z,46.26
2022-08-11T06:07:50.069Z,45.75
2022-08-11T06:10:33.641Z,46.39
2022-08-11T06:13:02.160Z,44.58
2022-08-11T06:15:32.295Z,46.14
2022-08-11T06:18:01.581Z,45.77
2022-08-11T06:20:36.738Z,46.36
2022-08-11T06:23:06.954Z,47.22
2022-08-11T06:25:36.091Z,47.10
2022-08-11T06:28:06.871Z,45.34
2022-08-11T06:30:45.159Z,43.31
2022-08-11T06:33:30.712Z,43.64
2022-08-11T06:36:07.743Z,43.16
2022-08-11T06:38:50.011Z,43.78
2022-08-11T06:41:32.089Z,42.68
2022-08-11T06:44:14.791Z,43.11
2022-08-11T06:46:54.852Z,43.08
2022-08-11T06:49:54.106Z,43.27
2022-08-11T06:52:35.864Z,43.37
2022-08-11T06:55:55.832Z,42.63
2022-08-11T06:58:18.250Z,43.54
2022-08-11T07:00:48.490Z,43.00
2022-08-11T07:03:20.708Z,42.80
2022-08-11T07:05:54.307Z,42.59
2022-08-11T07:09:21.464Z,41.33
2022-08-11T07:11:57.371Z,40.27
2022-08-11T07:14:46.685Z,37.45
2022-08-11T07:17:22.176Z,36.77
2022-08-11T07:20:32.532Z,34.85
2022-08-11T07:23:21.934Z,35.02
2022-08-11T07:26:12.954Z,35.62
2022-08-11T07:28:58.180Z,34.90
2022-08-11T07:31:40.878Z,37.85
2022-08-11T07:34:20.989Z,36.49
2022-08-11T07:36:57.040Z,35.01
2022-08-11T07:39:31.890Z,35.67
2022-08-11T07:42:05.258Z,35.86
2022-08-11T07:44:52.956Z,34.73
2022-08-11T07:47:40.882Z,36.33
2022-08-11T07:50:28.488Z,36.72
2022-08-11T07:52:58.238Z,37.39
2022-08-11T07:55:49.107Z,36.97
2022-08-11T07:58:45.146Z,37.37
2022-08-11T08:01:43.442Z,37.43
2022-08-11T08:04:33.535Z,37.58
2022-08-11T08:07:22.280Z,37.49
2022-08-11T08:10:09.993Z,38.73
2022-08-11T08:13:00.506Z,38.56
2022-08-11T08:15:47.307Z,40.08
2022-08-11T08:18:26.788Z,39.23
2022-08-11T08:20:56.926Z,39.81
2022-08-11T08:23:33.886Z,41.54
2022-08-11T08:26:04.768Z,43.15
2022-08-11T08:28:34.163Z,43.65
2022-08-11T08:31:01.451Z,42.94
2022-08-11T08:33:31.553Z,42.42
2022-08-11T08:36:12.402Z,43.10
2022-08-11T08:38:47.230Z,44.53
2022-08-11T08:41:19.979Z,45.67
2022-08-11T08:43:52.002Z,47.22
2022-08-11T08:46:37.447Z,46.41
2022-08-11T08:49:05.802Z,47.80
2022-08-11T08:51:58.805Z,47.53
2022-08-11T08:54:30.694Z,49.07
2022-08-11T08:56:58.829Z,48.61
2022-08-11T08:59:47.645Z,48.43
2022-08-11T09:02:16.608Z,49.50
2022-08-11T09:04:46.614Z,50.42
2022-08-11T09:07:17.525Z,51.98
2022-08-11T09:09:53.880Z,51.79
2022-08-11T09:12:35.684Z,51.41
2022-08-11T09:15:09.355Z,52.55
2022-08-11T09:17:43.889Z,52.99
2022-08-11T09:20:22.110Z,52.58
2022-08-11T09:24:06.609Z,52.66
2022-08-11T09:26:32.793Z,53.04
2022-08-11T09:29:01.442Z,53.55
2022-08-11T09:31:38.952Z,53.24
2022-08-11T09:34:08.756Z,53.54
2022-08-11T09:36:54.799Z,53.02
2022-08-11T09:39:41.213Z,52.47
2022-08-11T09:42:11.366Z,51.95
2022-08-11T09:44:50.894Z,52.39
2022-08-11T09:47:30.051Z,52.58
2022-08-11T09:50:00.868Z,53.20
2022-08-11T09:52:31.141Z,54.22
2022-08-11T09:54:59.229Z,53.91
2022-08-11T09:57:44.861Z,54.22
2022-08-11T10:00:15.472Z,53.95
2022-08-11T10:02:50.628Z,53.99
2022-08-11T10:05:38.265Z,54.31
2022-08-11T10:08:09.592Z,54.71
2022-08-11T10:10:39.390Z,54.67
2022-08-11T10:14:31.006Z,54.70
2022-08-11T10:16:15.826Z,55.31
2022-08-11T10:18:53.032Z,55.66
2022-08-11T10:21:36.844Z,55.80
2022-08-11T10:24:25.722Z,55.87
2022-08-11T10:26:55.012Z,55.69
2022-08-11T10:29:49.862Z,55.71
2022-08-11T10:33:04.364Z,55.39
2022-08-11T10:35:38.043Z,55.57
2022-08-11T10:38:09.728Z,55.28
2022-08-11T10:40:42.057Z,55.68
2022-08-11T10:43:14.486Z,55.38
2022-08-11T10:46:25.743Z,55.69
2022-08-11T10:48:59.382Z,55.30
2022-08-11T10:51:51.212Z,56.58
2022-08-11T10:54:39.792Z,55.83
2022-08-11T10:57:25.896Z,56.19
2022-08-11T10:59:56.725Z,56.80
2022-08-11T11:02:27.414Z,56.14
2022-08-11T11:05:04.589Z,55.30
2022-08-11T11:07:44.000Z,55.63
2022-08-11T11:10:11.952Z,55.19
2022-08-11T11:13:06.392Z,56.36
2022-08-11T11:15:55.741Z,57.20
2022-08-11T11:18:26.393Z,57.08
2022-08-11T11:21:09.768Z,57.24
2022-08-11T11:24:01.458Z,57.49
2022-08-11T11:26:56.206Z,57.93
2022-08-11T11:30:06.526Z,58.48
2022-08-11T11:33:11.849Z,56.20
2022-08-11T11:36:32.739Z,57.14
2022-08-11T11:39:01.925Z,55.40
2022-08-11T11:41:29.787Z,57.70
2022-08-11T11:43:58.355Z,58.16
2022-08-11T11:46:30.906Z,59.47
2022-08-11T11:49:00.566Z,58.52
2022-08-11T11:51:28.316Z,58.75
2022-08-11T11:53:55.768Z,59.80
2022-08-11T11:56:26.178Z,60.95
2022-08-11T11:59:14.664Z,60.33
2022-08-11T12:01:50.204Z,60.27
2022-08-11T12:04:20.626Z,60.71
2022-08-11T12:06:48.727Z,60.95
2022-08-11T12:09:18.691Z,61.23
2022-08-11T12:12:04.366Z,60.03
2022-08-11T12:14:31.880Z,59.57
2022-08-11T12:16:59.833Z,58.85
2022-08-11T12:19:29.168Z,58.88
2022-08-11T12:22:22.028Z,58.57
2022-08-11T12:25:08.161Z,59.22
2022-08-11T12:27:38.898Z,59.19
2022-08-11T12:30:08.696Z,58.81
2022-08-11T12:32:39.475Z,60.01
2022-08-11T12:35:07.755Z,60.45
2022-08-11T12:37:45.457Z,60.00
2022-08-11T12:41:11.907Z,59.91
2022-08-11T12:43:56.863Z,58.93
2022-08-11T12:46:29.515Z,59.71
2022-08-11T12:49:20.222Z,60.62
2022-08-11T12:52:11.502Z,61.59
2022-08-11T12:55:00.223Z,61.84
2022-08-11T12:57:54.623Z,62.56
2022-08-11T13:00:41.347Z,62.40
2022-08-11T13:03:30.314Z,62.37
2022-08-11T13:06:04.390Z,62.38
2022-08-11T13:08:35.776Z,62.84
2022-08-11T13:11:23.106Z,62.62
2022-08-11T13:13:57.045Z,62.85
2022-08-11T13:16:56.501Z,63.38
2022-08-11T13:19:24.389Z,63.61
2022-08-11T13:21:53.420Z,63.27
2022-08-11T13:24:22.088Z,63.15
2022-08-11T13:26:51.052Z,63.46
2022-08-11T13:29:23.708Z,63.14
2022-08-11T13:31:51.973Z,62.76
2022-08-11T13:34:20.847Z,63.41
2022-08-11T13:36:54.797Z,63.82
2022-08-11T13:39:25.304Z,63.68
2022-08-11T13:41:59.729Z,64.14
2022-08-11T13:44:31.256Z,64.12
2022-08-11T13:47:02.122Z,64.53
2022-08-11T13:49:31.351Z,64.40
2022-08-11T13:51:59.414Z,63.58
2022-08-11T13:54:30.364Z,63.65
2022-08-11T13:57:03.452Z,62.90
2022-08-11T13:59:51.769Z,62.73
2022-08-11T14:02:29.428Z,62.88
2022-08-11T14:05:20.278Z,62.44
2022-08-11T14:07:53.938Z,62.57
2022-08-11T14:10:24.933Z,63.19
2022-08-11T14:13:19.029Z,62.97
2022-08-11T14:15:48.944Z,62.10
2022-08-11T14:18:22.860Z,61.90
2022-08-11T14:21:14.001Z,63.43
2022-08-11T14:23:43.928Z,63.30
2022-08-11T14:26:38.510Z,62.72
2022-08-11T14:29:14.983Z,63.38
2022-08-11T14:31:53.070Z,63.17
2022-08-11T14:34:23.170Z,62.62
2022-08-11T14:36:57.276Z,63.15
2022-08-11T14:39:36.193Z,63.32
2022-08-11T14:42:24.221Z,63.61
2022-08-11T14:45:57.562Z,63.37
2022-08-11T14:48:18.371Z,64.02
2022-08-11T14:50:47.255Z,63.20
2022-08-11T14:53:17.841Z,63.12
2022-08-11T14:56:05.294Z,63.29
2022-08-11T14:58:34.090Z,64.01
2022-08-11T15:01:03.585Z,64.04
2022-08-11T15:03:33.919Z,64.27
2022-08-11T15:06:03.823Z,64.73
2022-08-11T15:08:54.895Z,64.30
2022-08-11T15:11:48.192Z,64.53
2022-08-11T15:14:39.578Z,64.16
2022-08-11T15:17:09.914Z,64.14
2022-08-11T15:20:04.798Z,64.17
2022-08-11T15:22:50.638Z,64.64
2022-08-11T15:25:20.162Z,65.02
2022-08-11T15:28:08.652Z,65.26
2022-08-11T15:30:55.986Z,64.78
2022-08-11T15:54:29.170Z,64.85
2022-08-11T15:56:58.891Z,64.14
2022-08-11T15:59:47.027Z,63.78
2022-08-11T16:02:36.411Z,64.77
2022-08-11T16:05:08.747Z,64.73
2022-08-11T16:07:40.816Z,64.54
2022-08-11T16:10:19.673Z,64.84
2022-08-11T16:13:21.896Z,64.71
2022-08-11T16:16:14.216Z,64.70
2022-08-11T16:18:51.743Z,64.78
2022-08-11T16:21:36.130Z,62.26
2022-08-11T16:24:07.951Z,61.14
2022-08-11T16:27:10.019Z,61.46
2022-08-11T16:29:28.839Z,60.60
2022-08-11T16:32:15.779Z,60.98
2022-08-11T16:35:08.338Z,60.95
2022-08-11T16:37:56.433Z,60.19
2022-08-11T16:40:24.573Z,59.85
2022-08-11T16:43:12.671Z,60.13
2022-08-11T16:46:00.568Z,60.74
2022-08-11T16:48:37.509Z,60.92
2022-08-11T16:51:07.480Z,61.04
2022-08-11T16:53:45.977Z,61.08
2022-08-11T16:56:28.601Z,60.83
2022-08-11T16:59:16.736Z,60.87
2022-08-11T17:02:00.039Z,60.83
2022-08-11T17:05:09.450Z,60.58
2022-08-11T17:08:01.165Z,60.92
2022-08-11T17:10:56.667Z,60.89
2022-08-11T17:14:03.238Z,60.96
2022-08-11T17:16:37.835Z,60.71
2022-08-11T17:19:20.430Z,60.40
2022-08-11T17:22:26.214Z,60.91
2022-08-11T17:24:55.737Z,60.67
2022-08-11T17:27:24.737Z,60.00
2022-08-11T17:30:04.725Z,59.22
2022-08-11T17:32:56.792Z,59.39
2022-08-11T17:35:32.959Z,58.92
2022-08-11T17:38:05.850Z,58.56
2022-08-11T17:40:39.017Z,58.58
2022-08-11T17:43:29.174Z,58.49
2022-08-11T17:46:15.942Z,58.69
2022-08-11T17:48:47.825Z,59.03
2022-08-11T17:51:38.330Z,59.22
2022-08-11T17:54:26.051Z,59.71
2022-08-11T17:57:20.496Z,59.71
2022-08-11T17:59:53.990Z,60.11
2022-08-11T18:02:52.645Z,59.90
2022-08-11T18:05:22.097Z,60.46
2022-08-11T18:08:10.390Z,60.34
2022-08-11T18:10:59.126Z,60.85
2022-08-11T18:13:47.661Z,60.75
2022-08-11T18:16:33.387Z,61.13
2022-08-11T18:19:19.506Z,61.18
2022-08-11T18:22:15.570Z,61.14
2022-08-11T18:25:13.312Z,60.98
2022-08-11T18:28:02.609Z,60.94
2022-08-11T18:30:54.612Z,61.16
2022-08-11T18:34:09.266Z,60.87
2022-08-11T18:37:29.027Z,61.31
2022-08-11T18:40:29.883Z,61.30
2022-08-11T18:43:25.022Z,61.55
2022-08-11T18:46:20.298Z,61.67
2022-08-11T18:49:15.599Z,61.73
2022-08-11T18:52:06.509Z,61.62
2022-08-11T18:54:55.440Z,61.66
2022-08-11T18:57:49.647Z,61.89
2022-08-11T19:00:44.100Z,61.58
2022-08-11T19:03:43.447Z,61.76
2022-08-11T19:06:41.546Z,61.73
2022-08-11T19:09:35.678Z,61.92
2022-08-11T19:12:22.682Z,61.56
2022-08-11T19:15:11.219Z,61.87
2022-08-11T19:18:01.242Z,62.13
2022-08-11T19:20:49.918Z,61.74
2022-08-11T19:23:40.203Z,61.92
2022-08-11T19:26:27.365Z,62.62
2022-08-11T19:30:05.048Z,62.49
2022-08-11T19:32:21.247Z,62.86
2022-08-11T19:35:07.812Z,62.87
2022-08-11T19:37:54.847Z,62.97
2022-08-11T19:40:41.396Z,62.16
2022-08-11T19:43:28.600Z,61.88
2022-08-11T19:46:17.822Z,62.83
2022-08-11T19:49:08.530Z,62.50
2022-08-11T19:51:56.246Z,62.68
2022-08-11T19:54:47.240Z,62.90
2022-08-11T19:57:39.382Z,63.42
2022-08-11T20:00:32.027Z,63.11
2022-08-11T20:03:19.586Z,63.44
2022-08-11T20:06:07.383Z,63.41
2022-08-11T20:08:58.530Z,64.04
2022-08-11T20:11:50.564Z,63.97
2022-08-11T20:14:38.248Z,63.68
2022-08-11T20:17:26.408Z,63.78
2022-08-11T20:20:12.618Z,63.68
2022-08-11T20:23:00.058Z,63.52
2022-08-11T20:25:46.588Z,63.19
2022-08-11T20:28:35.718Z,63.33
2022-08-11T20:31:24.462Z,63.36
2022-08-11T20:34:10.608Z,62.95
2022-08-11T20:36:58.190Z,63.20
2022-08-11T20:39:44.752Z,62.85
2022-08-11T20:42:32.162Z,63.49
2022-08-11T20:45:23.414Z,63.36
2022-08-11T20:48:15.392Z,62.77
2022-08-11T20:51:07.310Z,63.01
2022-08-11T20:54:05.698Z,62.59
2022-08-11T20:56:54.558Z,61.27
2022-08-11T20:59:56.394Z,60.29
2022-08-11T21:02:45.003Z,59.82
2022-08-11T21:06:09.857Z,59.38
2022-08-11T21:08:45.700Z,58.96
2022-08-11T21:11:33.766Z,58.81
2022-08-11T21:14:21.906Z,57.85
2022-08-11T21:17:27.467Z,55.44
2022-08-11T21:20:21.631Z,55.24
2022-08-11T21:23:18.459Z,54.69
2022-08-11T21:26:21.189Z,55.10
2022-08-11T21:29:09.415Z,54.80
2022-08-11T21:31:55.702Z,55.22
2022-08-11T21:34:43.892Z,55.31
2022-08-11T21:37:31.298Z,55.30
2022-08-11T21:40:19.100Z,55.02
2022-08-11T21:43:06.743Z,54.75
2022-08-11T21:45:55.786Z,55.23
2022-08-11T21:48:44.022Z,55.07
2022-08-11T21:51:30.211Z,55.70
2022-08-11T21:54:18.265Z,55.58
2022-08-11T21:57:05.899Z,56.01
2022-08-11T22:00:12.692Z,55.65
2022-08-11T22:02:59.386Z,56.22
2022-08-11T22:05:47.444Z,56.16
2022-08-11T22:08:33.649Z,55.81
2022-08-11T22:11:31.737Z,55.77
2022-08-11T22:14:22.035Z,55.75
2022-08-11T22:17:07.991Z,55.70
2022-08-11T22:19:56.378Z,55.94
2022-08-11T22:22:52.242Z,56.52
2022-08-11T22:25:55.044Z,56.72
2022-08-11T22:28:45.415Z,56.95
2022-08-11T22:31:31.932Z,56.84
2022-08-11T22:34:18.144Z,56.90
2022-08-11T22:37:06.931Z,57.04
2022-08-11T22:40:02.079Z,57.75
2022-08-11T22:42:48.336Z,57.69
2022-08-11T22:45:34.374Z,57.45
2022-08-11T22:48:23.475Z,57.84
2022-08-11T22:51:10.163Z,57.64
2022-08-11T22:53:59.119Z,57.44
2022-08-11T22:56:50.407Z,57.48
2022-08-11T22:59:38.209Z,57.73
2022-08-11T23:02:25.830Z,57.62
2022-08-11T23:05:12.581Z,57.91
2022-08-11T23:08:00.062Z,57.43
2022-08-11T23:10:46.594Z,58.02
2022-08-11T23:13:32.833Z,57.81
2022-08-11T23:16:18.803Z,58.31
2022-08-11T23:19:05.269Z,58.64
2022-08-11T23:21:51.941Z,58.74
2022-08-11T23:24:39.417Z,58.29
2022-08-11T23:27:27.387Z,58.44
2022-08-11T23:30:17.100Z,58.37
2022-08-11T23:33:10.206Z,59.18
2022-08-11T23:36:03.533Z,58.74
2022-08-11T23:38:52.164Z,58.90
2022-08-11T23:41:38.233Z,59.30
2022-08-11T23:44:25.841Z,59.19
2022-08-11T23:47:15.295Z,59.04
2022-08-11T23:50:01.477Z,58.70
2022-08-11T23:52:48.946Z,58.50
2022-08-11T23:55:38.815Z,58.05
2022-08-11T23:58:25.364Z,57.53
